Time;durP1;ratioP1;P1;durP2;ratioP2;P2;SDS_P1;SDS_P2;PMS_P1;PMS_P2;Temp;Humidity;BMP_temperature;BMP_pressure;BME280_temperature;BME280_humidity;BME280_pressure;Samples;Min_cycle;Max_cycle;Signal;HPM_P1;HPM_P2
2022/04/27 00:00:18;;;;;;;13.32;9.95;;;;;;;14.12;65.30;101212.53;5012756;28;103949;-48
2022/04/27 00:02:47;;;;;;;12.23;9.35;;;;;;;14.11;65.00;101208.19;5013659;28;101921;-49
2022/04/27 00:05:17;;;;;;;13.23;9.80;;;;;;;14.12;65.47;101206.25;5011773;28;102429;-49
2022/04/27 00:07:46;;;;;;;13.38;10.68;;;;;;;14.11;65.18;101205.44;5014301;27;102181;-49
2022/04/27 00:10:14;;;;;;;13.30;9.48;;;;;;;14.12;65.41;101209.00;5013519;28;103965;-49
2022/04/27 00:12:41;;;;;;;13.70;8.82;;;;;;;14.11;65.21;101208.19;5024887;27;102054;-49
2022/04/27 00:15:08;;;;;;;12.23;9.27;;;;;;;14.12;65.34;101207.06;5012626;27;102386;-49
2022/04/27 00:17:35;;;;;;;11.70;8.95;;;;;;;14.11;65.00;101205.44;5013581;28;102233;-49
2022/04/27 00:20:05;;;;;;;11.45;8.75;;;;;;;14.11;64.91;101213.66;5012145;28;103942;-49
2022/04/27 00:22:39;;;;;;;11.32;8.82;;;;;;;14.11;65.06;101216.38;5012749;28;102183;-48
2022/04/27 00:25:08;;;;;;;10.27;8.35;;;;;;;14.11;65.21;101219.13;5018185;27;102050;-51
2022/04/27 00:27:35;;;;;;;9.90;8.05;;;;;;;14.11;65.00;101218.31;5029551;27;102100;-51
2022/04/27 00:30:05;;;;;;;10.35;8.25;;;;;;;14.12;65.44;101222.69;5015029;28;104446;-48
2022/04/27 00:32:37;;;;;;;10.57;8.05;;;;;;;14.10;65.45;101214.75;5031567;27;102326;-48
2022/04/27 00:35:08;;;;;;;9.63;7.90;;;;;;;14.10;65.19;101220.25;5011716;28;101997;-49
2022/04/27 00:37:34;;;;;;;9.10;7.32;;;;;;;14.11;65.13;101221.06;5013635;28;102437;-49
2022/04/27 00:40:03;;;;;;;9.43;7.60;;;;;;;14.11;65.12;101218.31;5010983;27;104131;-49
2022/04/27 00:42:30;;;;;;;9.93;7.23;;;;;;;14.09;65.25;101221.31;5024864;27;102022;-49
2022/04/27 00:44:57;;;;;;;12.30;8.32;;;;;;;14.10;65.20;101225.72;5022701;27;102024;-49
2022/04/27 00:47:26;;;;;;;9.45;7.43;;;;;;;14.10;65.23;101220.25;5033420;27;102735;-49
2022/04/27 00:49:53;;;;;;;9.13;7.80;;;;;;;14.10;65.16;101231.19;5031990;27;104073;-49
2022/04/27 00:52:22;;;;;;;9.15;7.35;;;;;;;14.10;65.36;101231.19;5026034;27;102290;-50
2022/04/27 00:54:53;;;;;;;9.50;7.43;;;;;;;14.10;65.33;101233.91;5027056;28;101799;-49
2022/04/27 00:57:19;;;;;;;8.93;7.30;;;;;;;14.10;65.65;101236.66;5016515;27;102460;-49
2022/04/27 00:59:49;;;;;;;10.80;7.20;;;;;;;14.11;65.10;101242.94;5031551;27;104139;-49
2022/04/27 01:02:18;;;;;;;9.25;7.15;;;;;;;14.10;65.31;101239.41;5032146;27;102025;-49
2022/04/27 01:04:45;;;;;;;9.05;6.97;;;;;;;14.09;65.44;101243.22;5031548;27;102523;-49
2022/04/27 01:07:12;;;;;;;8.27;6.85;;;;;;;14.11;65.32;101248.41;5020971;27;102721;-49
2022/04/27 01:09:40;;;;;;;8.43;7.30;;;;;;;14.11;65.48;101253.91;5010716;28;103900;-49
2022/04/27 01:12:15;;;;;;;8.93;6.72;;;;;;;14.10;65.19;101258.56;5012389;28;101989;-48
2022/04/27 01:14:44;;;;;;;10.20;7.75;;;;;;;14.09;65.22;101243.22;5019740;27;101988;-49
2022/04/27 01:17:11;;;;;;;8.95;7.43;;;;;;;14.10;64.86;101253.09;5032367;27;102171;-48
2022/04/27 01:19:37;;;;;;;9.10;7.15;;;;;;;14.11;65.19;101271.13;5031007;27;103837;-49
2022/04/27 01:22:09;;;;;;;9.35;7.53;;;;;;;14.10;65.48;101263.19;5031735;27;102426;-49
2022/04/27 01:24:36;;;;;;;9.55;7.43;;;;;;;14.10;65.45;101266.75;5012616;27;102029;-49
2022/04/27 01:27:03;;;;;;;8.90;7.18;;;;;;;14.11;65.16;101262.91;5030709;28;102472;-50
2022/04/27 01:29:30;;;;;;;9.05;7.15;;;;;;;14.11;65.32;101270.31;5023031;27;104132;-49
2022/04/27 01:32:00;;;;;;;10.45;7.50;;;;;;;14.12;65.38;101269.22;5031633;27;102112;-49
2022/04/27 01:34:26;;;;;;;;;;;;;;;14.11;65.32;101271.13;5030963;27;102423;-50
2022/04/27 01:37:59;;;;;;;8.55;6.88;;;;;;;14.12;65.30;101274.69;5032085;27;102813;-49
2022/04/27 01:39:44;;;;;;;10.43;6.65;;;;;;;14.11;65.58;101273.88;5010372;27;103897;-54
2022/04/27 01:42:10;;;;;;;9.45;6.95;;;;;;;14.13;65.66;101279.03;5012675;27;101912;-50
2022/04/27 01:44:37;;;;;;;8.68;6.97;;;;;;;14.12;65.75;101283.72;5018289;27;104277;-49
2022/04/27 01:47:05;;;;;;;8.93;6.78;;;;;;;14.12;65.52;101286.44;5030276;27;102144;-49
2022/04/27 01:49:31;;;;;;;7.50;6.25;;;;;;;14.12;65.49;101278.22;5011154;27;103862;-49
2022/04/27 01:54:45;;;;;;;7.22;6.53;;;;;;;14.12;65.74;101288.38;5020566;28;102380;-48
2022/04/27 01:57:12;;;;;;;8.95;6.68;;;;;;;14.12;65.72;101286.44;5027211;28;103305;-49
2022/04/27 01:59:41;;;;;;;7.82;6.30;;;;;;;14.13;65.53;101285.34;5025803;27;104080;-50
2022/04/27 02:02:10;;;;;;;8.57;6.80;;;;;;;14.12;65.65;101283.72;5020232;27;103653;-49
2022/04/27 02:04:39;;;;;;;7.10;5.85;;;;;;;14.13;65.67;101282.59;5030669;27;102193;-49
2022/04/27 02:07:06;;;;;;;9.35;6.60;;;;;;;14.12;65.92;101288.38;5024223;27;102491;-48
2022/04/27 02:09:37;;;;;;;7.90;6.53;;;;;;;14.12;65.80;101283.72;5017720;28;103951;-49
2022/04/27 02:12:07;;;;;;;6.72;6.03;;;;;;;14.12;65.94;101289.19;5027711;27;102628;-50
2022/04/27 02:14:35;;;;;;;8.52;6.30;;;;;;;14.12;65.69;101288.38;5011587;28;102332;-49
2022/04/27 02:17:15;;;;;;;8.35;6.15;;;;;;;14.12;65.66;101289.19;5023979;27;102551;-50
2022/04/27 02:19:42;;;;;;;7.43;6.10;;;;;;;14.12;66.01;101294.66;5025920;27;103536;-49
2022/04/27 02:22:08;;;;;;;9.35;6.55;;;;;;;14.13;65.87;101293.56;5028326;27;102480;-49
2022/04/27 02:24:35;;;;;;;7.45;6.05;;;;;;;14.12;65.90;101285.63;5029378;28;102330;-50
2022/04/27 02:27:01;;;;;;;7.00;6.20;;;;;;;14.12;65.89;101294.66;5032233;27;102105;-49
2022/04/27 02:29:29;;;;;;;8.60;6.10;;;;;;;14.12;65.92;101294.66;5018414;27;103936;-49
2022/04/27 02:31:57;;;;;;;6.32;5.65;;;;;;;14.12;65.69;101299.31;5011046;28;102007;-49
2022/04/27 02:34:24;;;;;;;7.80;5.90;;;;;;;14.12;65.92;101300.13;5010461;28;102729;-49
2022/04/27 02:36:50;;;;;;;6.60;5.78;;;;;;;14.12;65.88;101300.13;5024544;27;102423;-49
2022/04/27 02:39:17;;;;;;;7.13;6.10;;;;;;;14.13;65.62;101307.22;5029797;27;104111;-49
2022/04/27 02:41:44;;;;;;;5.97;5.35;;;;;;;14.13;66.03;101306.41;5025141;27;101918;-49
2022/04/27 02:44:11;;;;;;;7.55;6.57;;;;;;;14.12;65.91;101304.78;5014933;27;101901;-48
2022/04/27 02:46:40;;;;;;;7.78;6.10;;;;;;;14.13;65.66;101311.91;5011190;28;102197;-49
2022/04/27 02:51:52;;;;;;;7.75;5.45;;;;;;;14.13;65.83;101300.94;5012575;27;102627;-49
2022/04/27 02:54:20;;;;;;;5.70;5.00;;;;;;;14.12;65.73;101313.81;5030814;27;101951;-49
2022/04/27 02:56:47;;;;;;;6.47;5.40;;;;;;;14.12;65.60;101316.56;5030100;27;102193;-49
2022/04/27 02:59:15;;;;;;;7.40;5.13;;;;;;;14.12;65.72;101321.22;5012691;28;103901;-49
2022/04/27 03:01:43;;;;;;;6.68;5.32;;;;;;;14.13;65.94;101311.91;5014044;28;102280;-50
2022/04/27 03:04:10;;;;;;;7.03;6.30;;;;;;;14.12;66.01;101305.59;5014124;28;102598;-49
2022/04/27 03:06:37;;;;;;;7.28;6.07;;;;;;;14.12;65.61;101308.34;5014225;27;102184;-49
2022/04/27 03:09:04;;;;;;;6.97;5.57;;;;;;;14.12;65.87;101308.34;5017265;27;104059;-49
2022/04/27 03:11:33;;;;;;;6.60;6.00;;;;;;;14.12;65.91;101310.25;5033947;27;102329;-49
2022/04/27 03:13:59;;;;;;;5.93;4.90;;;;;;;14.12;66.28;101313.00;5019347;28;102544;-49
2022/04/27 03:16:26;;;;;;;6.00;5.35;;;;;;;14.12;65.67;101311.09;5034990;27;102602;-49
2022/04/27 03:18:53;;;;;;;7.28;6.00;;;;;;;14.12;66.10;101319.28;5033278;27;103766;-49
2022/04/27 03:21:20;;;;;;;6.60;5.97;;;;;;;14.11;65.69;101320.41;5033616;27;101999;-49
2022/04/27 03:23:47;;;;;;;7.05;5.15;;;;;;;14.11;65.97;101320.41;5015518;27;102352;-48
2022/04/27 03:26:13;;;;;;;6.47;5.10;;;;;;;14.12;65.91;101322.03;5015078;27;102272;-50
2022/04/27 03:28:40;;;;;;;5.97;5.05;;;;;;;14.11;65.76;101331.34;5033033;27;103875;-50
2022/04/27 03:31:06;;;;;;;6.40;5.70;;;;;;;14.11;65.91;101330.53;5023110;27;102027;-49
2022/04/27 03:33:33;;;;;;;5.72;5.13;;;;;;;14.12;65.68;101330.25;5013166;28;101938;-49
2022/04/27 03:36:06;;;;;;;6.00;5.40;;;;;;;14.11;65.66;101331.34;5020853;27;102329;-49
2022/04/27 03:38:52;;;;;;;5.68;5.18;;;;;;;14.11;66.05;101342.28;5031682;27;104972;-50
2022/04/27 03:41:22;;;;;;;5.07;4.57;;;;;;;14.12;65.86;101341.19;5032289;27;102368;-48
2022/04/27 03:43:50;;;;;;;6.05;5.00;;;;;;;14.12;66.07;101348.59;5018351;27;101939;-49
2022/04/27 03:46:19;;;;;;;5.60;5.00;;;;;;;14.12;66.44;101352.13;5027809;28;102708;-49
2022/04/27 03:48:48;;;;;;;6.57;5.50;;;;;;;14.12;66.00;101354.88;5031866;28;104019;-49
2022/04/27 03:51:15;;;;;;;6.03;5.43;;;;;;;14.13;66.11;101356.50;5026209;27;101806;-49
2022/04/27 03:53:42;;;;;;;7.15;4.88;;;;;;;14.13;66.08;101352.94;5014935;27;102077;-49
2022/04/27 03:56:09;;;;;;;5.55;5.05;;;;;;;14.14;65.93;101358.16;5021670;28;102372;-50
2022/04/27 03:58:36;;;;;;;6.68;4.95;;;;;;;14.13;66.17;101356.50;5021322;27;103960;-49
2022/04/27 04:01:03;;;;;;;5.13;4.63;;;;;;;14.15;65.70;101356.25;5016380;27;101965;-49
2022/04/27 04:03:31;;;;;;;5.88;5.22;;;;;;;14.16;65.90;101350.47;5013165;28;101934;-50
2022/04/27 04:05:57;;;;;;;6.10;5.28;;;;;;;14.17;65.65;101356.75;5013940;28;102409;-49
2022/04/27 04:08:28;;;;;;;5.85;5.07;;;;;;;14.17;66.11;101360.34;5012526;28;104062;-49
2022/04/27 04:11:15;;;;;;;7.22;4.75;;;;;;;14.19;65.72;101371.00;5011877;28;102013;-49
2022/04/27 04:13:41;;;;;;;6.90;5.15;;;;;;;14.19;65.96;101368.25;5011666;28;102088;-48
2022/04/27 04:16:11;;;;;;;5.28;4.78;;;;;;;14.19;65.94;101374.56;5029377;27;102481;-49
2022/04/27 04:18:38;;;;;;;5.25;4.45;;;;;;;14.22;65.89;101375.09;5031657;27;103935;-48
2022/04/27 04:21:05;;;;;;;5.22;4.72;;;;;;;14.22;65.94;101373.19;5032161;27;102299;-49
2022/04/27 04:23:34;;;;;;;5.15;4.47;;;;;;;14.23;65.89;101371.25;5016221;27;102473;-51
2022/04/27 04:28:47;;;;;;;5.30;4.80;;;;;;;14.25;65.95;101377.28;5012675;28;104085;-49
2022/04/27 04:31:17;;;;;;;5.57;5.05;;;;;;;14.26;65.90;101381.66;5012724;28;102339;-49
2022/04/27 04:33:48;;;;;;;4.75;4.32;;;;;;;14.26;65.93;101378.94;5012816;27;102198;-49
2022/04/27 04:36:16;;;;;;;5.25;4.72;;;;;;;14.27;66.25;101384.09;5013781;28;102300;-48
2022/04/27 04:38:44;;;;;;;5.43;4.53;;;;;;;14.28;66.00;101382.19;5012049;28;103881;-49
2022/04/27 04:41:30;;;;;;;5.20;4.43;;;;;;;14.27;65.99;101386.84;5017217;27;101978;-50
2022/04/27 04:43:57;;;;;;;5.15;4.65;;;;;;;14.30;65.90;101377.25;5012367;28;102393;-50
2022/04/27 04:46:23;;;;;;;4.78;4.15;;;;;;;14.28;65.71;101368.50;5014883;28;102473;-49
2022/04/27 04:48:54;;;;;;;5.38;4.50;;;;;;;14.30;65.88;101377.25;5030399;27;104086;-49
2022/04/27 04:51:29;;;;;;;5.35;4.55;;;;;;;14.32;65.64;101380.56;5023178;27;101964;-48
2022/04/27 04:53:58;;;;;;;4.60;4.15;;;;;;;14.32;66.03;101386.03;5025259;27;101971;-49
2022/04/27 04:56:24;;;;;;;7.75;4.45;;;;;;;14.33;65.91;101393.94;5013099;28;102179;-48
2022/04/27 04:58:51;;;;;;;5.55;4.22;;;;;;;14.34;65.69;101389.28;5010574;28;103920;-48
2022/04/27 05:01:17;;;;;;;5.38;4.60;;;;;;;14.34;65.65;101397.50;5017367;27;103461;-48
2022/04/27 05:03:44;;;;;;;4.90;4.10;;;;;;;14.33;66.10;101399.44;5029799;27;102454;-49
2022/04/27 05:06:11;;;;;;;5.18;4.68;;;;;;;14.34;65.49;101403.78;5017365;27;102113;-49
2022/04/27 05:08:50;;;;;;;4.40;4.00;;;;;;;14.36;65.70;101409.00;5041489;27;103823;-49
2022/04/27 05:11:18;;;;;;;5.32;4.55;;;;;;;14.37;65.59;101416.13;5011813;28;102035;-49
2022/04/27 05:13:47;;;;;;;4.68;4.28;;;;;;;14.38;65.86;101412.25;5019301;28;102581;-49
2022/04/27 05:16:15;;;;;;;4.40;4.00;;;;;;;14.38;65.92;101418.56;5032902;27;102255;-49
2022/04/27 05:18:42;;;;;;;4.50;4.10;;;;;;;14.41;65.87;101417.19;5029301;27;104050;-49
2022/04/27 05:21:08;;;;;;;4.43;4.03;;;;;;;14.41;65.73;101419.94;5032463;27;102297;-49
2022/04/27 05:23:36;;;;;;;4.18;3.78;;;;;;;14.42;65.43;101430.63;5016948;27;102184;-49
2022/04/27 05:26:03;;;;;;;4.03;3.67;;;;;;;14.45;65.82;101428.41;5012369;28;102139;-49
2022/04/27 05:31:54;;;;;;;4.13;3.70;;;;;;;14.45;65.66;101429.22;5024768;27;104167;-49
2022/04/27 05:34:06;;;;;;;4.22;3.83;;;;;;;14.47;65.90;101424.28;5027391;27;102130;-50
2022/04/27 05:36:33;;;;;;;4.28;3.88;;;;;;;14.48;65.52;101428.66;5023059;27;102307;-50
2022/04/27 05:39:00;;;;;;;3.90;3.58;;;;;;;14.50;65.74;101432.00;5026852;27;103827;-49
2022/04/27 05:41:26;;;;;;;4.30;3.90;;;;;;;14.52;65.38;101428.94;5025593;27;102116;-49
2022/04/27 05:43:54;;;;;;;5.03;3.75;;;;;;;14.52;65.68;101429.78;5042543;27;101932;-49
2022/04/27 05:46:24;;;;;;;4.00;3.70;;;;;;;14.53;65.80;101434.13;5010764;28;102452;-49
2022/04/27 05:48:52;;;;;;;3.90;3.53;;;;;;;14.54;65.78;101433.06;5026471;27;103901;-49
2022/04/27 05:51:20;;;;;;;3.90;3.60;;;;;;;14.56;65.52;101441.81;5028591;27;102524;-48
2022/04/27 05:53:50;;;;;;;3.85;3.40;;;;;;;14.56;65.56;101433.59;5024382;27;101988;-50
2022/04/27 05:56:19;;;;;;;4.10;3.70;;;;;;;14.57;65.59;101437.97;5018742;28;102454;-48
2022/04/27 05:58:47;;;;;;;3.85;3.50;;;;;;;14.59;65.79;101441.25;5023957;28;104104;-49
2022/04/27 06:01:15;;;;;;;5.27;4.00;;;;;;;14.59;65.57;101437.69;5024548;28;101960;-49
2022/04/27 06:03:45;;;;;;;5.85;3.42;;;;;;;14.59;65.71;101440.44;5024561;27;102567;-48
2022/04/27 06:06:11;;;;;;;4.28;3.65;;;;;;;14.60;65.56;101448.34;5029939;27;102244;-48
2022/04/27 06:08:41;;;;;;;3.92;3.63;;;;;;;14.61;65.48;101443.72;5028654;27;104088;-49
2022/04/27 06:11:08;;;;;;;3.45;3.15;;;;;;;14.62;65.45;101446.16;5025705;27;102413;-50
2022/04/27 06:13:34;;;;;;;5.35;3.78;;;;;;;14.61;65.70;101444.53;5026775;27;102101;-50
2022/04/27 06:16:01;;;;;;;3.72;3.42;;;;;;;14.62;65.69;101437.94;5028961;27;102361;-50
2022/04/27 06:18:34;;;;;;;4.10;3.70;;;;;;;14.63;65.54;101441.50;5027452;27;104025;-49
2022/04/27 06:21:01;;;;;;;4.03;3.63;;;;;;;14.63;65.75;101436.84;5028280;27;102006;-50
2022/04/27 06:23:30;;;;;;;4.60;3.03;;;;;;;14.64;65.38;101449.47;5022122;27;102437;-50
2022/04/27 06:25:59;;;;;;;3.60;3.05;;;;;;;14.65;65.42;101445.59;5018941;28;102370;-50
2022/04/27 06:28:27;;;;;;;3.22;2.92;;;;;;;14.68;65.45;101454.34;5029342;27;104061;-49
2022/04/27 06:30:54;;;;;;;3.50;3.20;;;;;;;14.68;65.67;101452.44;5029478;27;102544;-48
2022/04/27 06:33:21;;;;;;;3.50;3.20;;;;;;;14.69;65.48;101450.53;5030601;27;101868;-49
2022/04/27 06:35:54;;;;;;;3.92;3.60;;;;;;;14.70;65.41;101463.13;5029661;27;102378;-49
2022/04/27 06:38:20;;;;;;;3.13;2.85;;;;;;;14.72;65.43;101471.88;5024392;28;103965;-49
2022/04/27 06:40:46;;;;;;;3.65;3.35;;;;;;;14.70;65.77;101469.41;5033731;27;102174;-48
2022/04/27 06:43:13;;;;;;;3.60;3.30;;;;;;;14.72;65.27;101474.63;5021115;27;103803;-49
2022/04/27 06:45:39;;;;;;;3.50;3.20;;;;;;;14.73;65.39;101479.00;5024917;27;102563;-48
2022/04/27 06:48:07;;;;;;;3.08;2.78;;;;;;;14.73;65.69;101463.38;5013260;28;104035;-49
2022/04/27 06:50:34;;;;;;;3.42;3.13;;;;;;;14.74;65.21;101475.16;5014003;28;101775;-49
2022/04/27 06:53:05;;;;;;;3.42;3.10;;;;;;;14.74;65.27;101475.16;5012207;28;102425;-49
2022/04/27 06:55:33;;;;;;;3.13;2.83;;;;;;;14.75;65.52;101474.03;5013952;28;102570;-50
2022/04/27 06:58:01;;;;;;;3.38;2.95;;;;;;;14.77;65.29;101474.59;5012342;28;103734;-48
2022/04/27 07:00:27;;;;;;;2.92;2.67;;;;;;;14.78;65.66;101476.22;5012372;28;102493;-49
2022/04/27 07:02:54;;;;;;;3.22;2.60;;;;;;;14.78;65.41;101471.56;5013289;28;102374;-49
2022/04/27 07:05:21;;;;;;;3.10;2.83;;;;;;;14.80;65.78;101479.53;5014102;28;102444;-49
2022/04/27 07:07:48;;;;;;;3.30;3.00;;;;;;;14.81;65.48;101479.22;5028155;28;103925;-49
2022/04/27 07:10:19;;;;;;;2.80;2.60;;;;;;;14.82;65.66;101472.66;5033360;28;101900;-49
2022/04/27 07:12:47;;;;;;;3.70;3.30;;;;;;;14.84;65.47;101475.94;5032694;28;102542;-48
2022/04/27 07:15:14;;;;;;;3.08;2.80;;;;;;;14.85;65.42;101477.56;5027503;27;102356;-49
2022/04/27 07:17:41;;;;;;;3.13;2.80;;;;;;;14.84;65.19;101481.41;5014722;28;103871;-51
2022/04/27 07:20:09;;;;;;;3.35;3.05;;;;;;;14.86;65.09;101483.88;5014332;28;101841;-49
2022/04/27 07:22:36;;;;;;;2.70;2.50;;;;;;;14.86;65.25;101486.63;5018339;28;101999;-49
2022/04/27 07:25:03;;;;;;;3.22;2.90;;;;;;;14.87;65.05;101491.00;5034521;27;102457;-51
2022/04/27 07:27:36;;;;;;;2.80;2.60;;;;;;;14.88;65.14;101487.16;5032922;27;103802;-49
2022/04/27 07:30:04;;;;;;;3.22;2.92;;;;;;;14.89;65.16;101488.78;5033442;27;102534;-49
2022/04/27 07:32:30;;;;;;;3.47;2.85;;;;;;;14.90;65.13;101487.69;5023818;27;102316;-50
2022/04/27 07:34:57;;;;;;;3.25;2.95;;;;;;;14.89;65.17;101495.09;5022549;28;102081;-49
2022/04/27 07:37:24;;;;;;;2.50;2.30;;;;;;;14.91;65.03;101492.06;5016057;27;103898;-49
2022/04/27 07:39:51;;;;;;;3.58;2.60;;;;;;;14.90;65.08;101491.25;5012664;28;101984;-50
2022/04/27 07:42:17;;;;;;;2.90;2.63;;;;;;;14.92;65.11;101488.22;5011513;28;101894;-48
2022/04/27 07:44:45;;;;;;;2.85;2.55;;;;;;;14.92;65.18;101496.44;5013266;27;102288;-49
2022/04/27 07:47:13;;;;;;;2.80;2.60;;;;;;;14.94;65.37;101493.44;5031848;27;103850;-48
2022/04/27 07:49:40;;;;;;;2.67;2.45;;;;;;;14.94;65.50;101486.03;5025879;27;102008;-48
2022/04/27 07:52:11;;;;;;;2.92;2.58;;;;;;;14.94;65.07;101491.50;5012845;28;102483;-48
2022/04/27 07:54:42;;;;;;;2.67;2.38;;;;;;;14.95;65.02;101495.88;5013758;28;102508;-50
2022/04/27 07:57:09;;;;;;;;;;;;;;;14.95;65.16;101497.81;5020614;27;104049;-50
2022/04/27 07:59:41;;;;;;;4.45;2.90;;;;;;;14.97;65.08;101499.19;5023425;28;103673;-49
2022/04/27 08:02:08;;;;;;;2.75;2.28;;;;;;;14.96;65.13;101500.25;5018110;28;101911;-49
2022/04/27 08:04:35;;;;;;;4.43;2.50;;;;;;;14.97;64.98;101492.88;5027047;28;102580;-49
2022/04/27 08:07:03;;;;;;;2.63;2.42;;;;;;;14.96;64.97;101494.78;5027877;27;104091;-48
2022/04/27 08:09:29;;;;;;;3.38;2.40;;;;;;;14.97;65.12;101493.69;5035599;27;102457;-49
2022/04/27 08:11:57;;;;;;;3.70;2.45;;;;;;;14.99;65.22;101488.72;5053390;27;102329;-51
2022/04/27 08:14:24;;;;;;;3.90;2.67;;;;;;;14.98;65.24;101487.09;5038832;27;101964;-48
2022/04/27 08:16:58;;;;;;;2.78;2.40;;;;;;;15.00;65.08;101487.66;5046271;27;103930;-48
2022/04/27 08:19:27;;;;;;;2.95;2.65;;;;;;;15.00;65.02;101495.03;5031959;28;101841;-49
2022/04/27 08:21:55;;;;;;;3.00;2.60;;;;;;;15.00;64.77;101492.28;5032798;27;102134;-49
2022/04/27 08:24:22;;;;;;;2.88;2.60;;;;;;;15.01;65.24;101494.75;5016405;27;102558;-50
2022/04/27 08:26:48;;;;;;;2.28;2.08;;;;;;;15.00;65.23;101495.03;5017175;28;104002;-49
2022/04/27 08:29:15;;;;;;;2.78;2.58;;;;;;;15.01;64.94;101499.44;5018295;28;102169;-49
2022/04/27 08:31:43;;;;;;;2.33;2.13;;;;;;;15.02;64.83;101504.63;5012439;28;102284;-49
2022/04/27 08:34:10;;;;;;;2.40;2.20;;;;;;;15.02;64.63;101490.91;5031437;28;102106;-49
2022/04/27 08:36:38;;;;;;;2.70;2.42;;;;;;;15.02;65.17;101501.88;5031319;27;103973;-48
2022/04/27 08:39:06;;;;;;;;;;;;;;;15.03;65.18;101498.03;5032538;27;101776;-48
2022/04/27 08:41:32;;;;;;;2.72;2.53;;;;;;;15.02;65.12;101496.41;5012717;28;101895;-48
2022/04/27 08:44:02;;;;;;;2.38;2.17;;;;;;;15.01;65.08;101486.53;5019619;28;102160;-49
2022/04/27 08:46:31;;;;;;;2.67;2.47;;;;;;;15.01;65.07;101489.28;5028526;28;104163;-49
2022/04/27 08:48:58;;;;;;;2.60;2.40;;;;;;;15.03;64.84;101484.31;5024014;27;103799;-49
2022/04/27 08:51:24;;;;;;;2.42;2.22;;;;;;;15.03;64.77;101492.53;5014331;28;102012;-49
2022/04/27 08:53:52;;;;;;;2.80;2.40;;;;;;;15.05;64.97;101492.28;5031659;27;102233;-50
2022/04/27 08:56:18;;;;;;;2.63;2.42;;;;;;;15.04;65.11;101488.72;5016406;27;103901;-49
2022/04/27 08:58:48;;;;;;;2.67;2.30;;;;;;;15.05;65.19;101484.06;5015869;28;102129;-49
2022/04/27 09:01:16;;;;;;;2.17;2.05;;;;;;;15.04;64.98;101485.16;5015996;28;102401;-48
2022/04/27 09:03:44;;;;;;;2.70;2.50;;;;;;;15.03;64.77;101492.53;5016410;27;102752;-48
2022/04/27 09:06:12;;;;;;;2.67;2.03;;;;;;;15.04;64.97;101480.50;5022943;27;103974;-49
2022/04/27 09:08:41;;;;;;;2.60;2.30;;;;;;;15.04;64.74;101469.53;5029849;28;102317;-49
2022/04/27 09:11:14;;;;;;;3.20;2.53;;;;;;;15.04;64.86;101480.50;5025243;28;102631;-49
2022/04/27 09:13:45;;;;;;;1.95;1.85;;;;;;;15.04;64.81;101483.25;5013496;28;102660;-49
2022/04/27 09:16:11;;;;;;;3.00;2.70;;;;;;;15.03;64.50;101478.84;5013274;28;103879;-49
2022/04/27 09:21:58;;;;;;;2.45;2.25;;;;;;;15.06;64.78;101482.94;5024290;28;103032;-49
2022/04/27 09:24:25;;;;;;;3.88;2.08;;;;;;;15.05;64.91;101487.59;5020872;28;102480;-49
2022/04/27 09:27:12;;;;;;;2.70;2.30;;;;;;;15.05;64.76;101475.81;5023936;28;103949;-49
2022/04/27 09:29:38;;;;;;;2.15;1.98;;;;;;;15.04;64.58;101480.50;5031857;27;102271;-49
2022/04/27 09:32:06;;;;;;;2.80;2.60;;;;;;;15.03;64.67;101483.50;5031455;27;101971;-49
2022/04/27 09:34:44;;;;;;;2.75;2.55;;;;;;;15.02;64.52;101479.94;5026424;27;102116;-50
2022/04/27 09:37:16;;;;;;;2.70;2.50;;;;;;;15.03;64.85;101483.50;5026318;27;104986;-49
2022/04/27 09:39:43;;;;;;;2.65;2.30;;;;;;;15.03;64.63;101478.03;5016718;27;102278;-49
2022/04/27 09:42:13;;;;;;;2.35;2.13;;;;;;;15.02;64.86;101482.69;5018580;27;101985;-49
2022/04/27 09:44:41;;;;;;;2.50;2.30;;;;;;;15.02;64.37;101479.94;5021956;27;105258;-49
2022/04/27 09:47:14;;;;;;;2.40;2.20;;;;;;;15.03;64.41;101473.34;5011317;28;104479;-50
2022/04/27 09:49:43;;;;;;;2.88;2.53;;;;;;;15.03;64.75;101467.88;5014427;28;102723;-50
2022/04/27 09:52:14;;;;;;;2.50;2.30;;;;;;;15.04;64.41;101468.72;5030784;27;101927;-49
2022/04/27 09:54:43;;;;;;;2.60;2.40;;;;;;;15.03;64.87;101467.88;5029437;27;102018;-51
2022/04/27 09:57:16;;;;;;;3.30;2.58;;;;;;;15.02;64.73;101466.25;5013637;27;104011;-48
2022/04/27 09:59:47;;;;;;;2.65;2.45;;;;;;;15.01;64.71;101470.09;5017696;27;102003;-48
2022/04/27 10:02:24;;;;;;;2.20;2.00;;;;;;;15.02;64.37;101476.38;5018066;27;102246;-49
2022/04/27 10:04:56;;;;;;;2.38;2.25;;;;;;;15.02;64.58;101471.72;5029956;27;102346;-50
2022/04/27 10:07:25;;;;;;;2.50;2.30;;;;;;;15.02;64.48;101465.44;5027313;27;104123;-50
2022/04/27 10:09:52;;;;;;;2.67;2.40;;;;;;;15.02;64.37;101468.16;5014337;27;102376;-50
2022/04/27 10:12:20;;;;;;;2.67;2.47;;;;;;;15.01;64.60;101472.84;5012641;27;102048;-53
2022/04/27 10:14:49;;;;;;;2.42;2.13;;;;;;;15.00;64.82;101468.47;5021894;27;102226;-49
2022/04/27 10:17:16;;;;;;;2.60;2.40;;;;;;;14.99;64.64;101461.31;5013515;27;103885;-49
2022/04/27 10:19:47;;;;;;;3.08;2.83;;;;;;;15.00;64.54;101470.34;5028556;27;102011;-48
2022/04/27 10:22:28;;;;;;;2.70;2.50;;;;;;;14.98;64.75;101470.66;5020203;27;102260;-48
2022/04/27 10:24:56;;;;;;;2.83;2.63;;;;;;;14.98;64.21;101470.66;5021250;27;104504;-52
2022/04/27 10:27:26;;;;;;;2.72;2.53;;;;;;;14.97;64.58;101462.72;5017606;27;105063;-51
2022/04/27 10:29:59;;;;;;;3.05;2.85;;;;;;;14.97;64.35;101463.53;5017459;27;102192;-49
2022/04/27 10:32:36;;;;;;;2.90;2.70;;;;;;;14.96;64.28;101456.41;5026467;27;101924;-49
2022/04/27 10:35:21;;;;;;;;;;;;;;;14.95;64.63;101465.72;5031231;27;102696;-50
2022/04/27 10:37:51;;;;;;;3.13;2.60;;;;;;;14.95;64.25;101465.72;5029495;27;103874;-49
2022/04/27 10:40:40;;;;;;;3.00;2.80;;;;;;;14.94;64.28;101464.09;5031123;27;102226;-51
2022/04/27 10:43:27;;;;;;;3.15;2.90;;;;;;;14.94;64.46;101466.03;5015562;28;102098;-49
2022/04/27 10:45:53;;;;;;;2.88;2.67;;;;;;;14.93;64.22;101456.16;5011940;28;101922;-48
2022/04/27 10:48:27;;;;;;;2.80;2.60;;;;;;;14.92;64.56;101455.31;5017657;27;104120;-52
2022/04/27 10:50:55;;;;;;;3.30;3.00;;;;;;;14.92;64.53;101458.06;5022053;27;102340;-49
2022/04/27 10:53:26;;;;;;;3.10;2.80;;;;;;;14.92;64.49;101460.81;5010790;28;102512;-49
2022/04/27 10:55:54;;;;;;;2.38;2.25;;;;;;;14.91;64.25;101453.69;5019020;28;102411;-49
2022/04/27 10:58:31;;;;;;;2.50;2.30;;;;;;;14.93;64.50;101461.63;5027254;28;104053;-49
2022/04/27 11:01:24;;;;;;;2.53;2.33;;;;;;;14.92;64.37;101454.50;5028979;27;102371;-49
2022/04/27 11:03:57;;;;;;;2.90;2.55;;;;;;;14.90;64.31;101454.81;5028383;27;102279;-51
2022/04/27 11:06:23;;;;;;;3.42;2.90;;;;;;;14.91;64.27;101450.97;5023687;27;102594;-49
2022/04/27 11:09:16;;;;;;;3.20;2.90;;;;;;;14.89;64.34;101453.16;5022396;27;104082;-48
2022/04/27 11:11:52;;;;;;;3.00;2.70;;;;;;;14.88;64.57;101444.13;5017800;28;102048;-49
2022/04/27 11:14:26;;;;;;;3.20;2.10;;;;;;;14.87;64.74;101437.00;5018091;27;102141;-49
2022/04/27 11:16:53;;;;;;;3.00;2.78;;;;;;;14.88;64.49;101437.81;5022157;27;102242;-49
2022/04/27 11:19:33;;;;;;;2.92;2.72;;;;;;;14.87;64.46;101433.44;5029934;27;104085;-49
2022/04/27 11:22:09;;;;;;;2.97;2.63;;;;;;;14.87;64.65;101441.66;5033989;27;102369;-49
2022/04/27 11:24:36;;;;;;;2.65;2.45;;;;;;;14.87;64.34;101436.19;5033836;27;102142;-49
2022/04/27 11:27:06;;;;;;;2.63;2.42;;;;;;;14.86;64.48;101429.88;5031825;28;102221;-49
2022/04/27 11:29:37;;;;;;;2.90;2.70;;;;;;;14.86;64.32;101434.56;5032673;27;104492;-49
2022/04/27 11:32:07;;;;;;;3.00;2.80;;;;;;;14.87;64.63;101433.44;5022825;27;102261;-49
2022/04/27 11:34:39;;;;;;;3.30;3.00;;;;;;;14.85;64.75;101425.50;5012976;28;102530;-48
2022/04/27 11:37:14;;;;;;;2.67;2.30;;;;;;;14.85;64.62;101420.00;5027636;27;102287;-48
2022/04/27 11:39:43;;;;;;;3.35;2.92;;;;;;;14.85;64.70;101421.94;5017278;28;103549;-49